Time;durP1;ratioP1;P1;durP2;ratioP2;P2;SDS_P1;SDS_P2;PMS_P1;PMS_P2;Temp;Humidity;BMP_temperature;BMP_pressure;BME280_temperature;BME280_humidity;BME280_pressure;Samples;Min_cycle;Max_cycle;Signal;HPM_P1;HPM_P2
2021/11/06 00:02:21;;;;;;;10.20;8.97;;;7.70;96.80;;;;;;5051572;28;20276;-86
2021/11/06 00:04:47;;;;;;;10.00;9.07;;;7.70;97.00;;;;;;5054202;28;20241;-86
2021/11/06 00:07:13;;;;;;;10.30;9.33;;;7.60;97.00;;;;;;5039634;28;20200;-86
2021/11/06 00:09:39;;;;;;;10.77;9.20;;;7.40;97.60;;;;;;5046051;28;20203;-86
2021/11/06 00:12:05;;;;;;;10.97;9.87;;;7.50;97.80;;;;;;5024419;28;20235;-86
2021/11/06 00:14:31;;;;;;;10.00;9.00;;;7.40;97.60;;;;;;5070004;28;20263;-86
2021/11/06 00:16:58;;;;;;;10.57;9.30;;;7.40;98.00;;;;;;5054289;28;20284;-86
2021/11/06 00:19:24;;;;;;;9.80;8.97;;;7.30;98.20;;;;;;5053350;28;20241;-86
2021/11/06 00:21:50;;;;;;;15.87;14.33;;;7.30;98.90;;;;;;5056779;28;20196;-86
2021/11/06 00:24:17;;;;;;;11.00;10.03;;;7.30;99.10;;;;;;5053170;28;20266;-86
2021/11/06 00:26:43;;;;;;;10.43;9.37;;;7.40;98.60;;;;;;5029117;28;20212;-86
2021/11/06 00:29:08;;;;;;;9.83;8.83;;;7.30;98.70;;;;;;5022933;28;20189;-86
2021/11/06 00:31:34;;;;;;;9.10;8.30;;;7.40;98.50;;;;;;5034162;28;20180;-86
2021/11/06 00:34:00;;;;;;;9.07;8.13;;;7.40;98.70;;;;;;5053215;28;20195;-86
2021/11/06 00:36:25;;;;;;;8.87;8.07;;;7.50;98.20;;;;;;5054400;28;20220;-86
2021/11/06 00:38:52;;;;;;;9.87;8.90;;;7.60;97.30;;;;;;5035468;28;20232;-86
2021/11/06 00:41:18;;;;;;;8.60;7.80;;;7.50;97.60;;;;;;5038672;28;20605;-86
2021/11/06 00:43:44;;;;;;;8.43;7.63;;;7.40;97.30;;;;;;5050748;28;20231;-86
2021/11/06 00:46:10;;;;;;;7.50;6.80;;;7.30;98.40;;;;;;5068426;28;20250;-86
2021/11/06 00:48:35;;;;;;;7.50;6.80;;;7.40;97.70;;;;;;5055835;28;20200;-86
2021/11/06 00:51:01;;;;;;;7.53;6.83;;;7.30;97.50;;;;;;5050502;28;20423;-86
2021/11/06 00:53:27;;;;;;;7.50;6.73;;;7.30;97.50;;;;;;5042813;28;20199;-86
2021/11/06 00:55:53;;;;;;;7.33;6.43;;;7.30;98.00;;;;;;5058481;28;20223;-86
2021/11/06 00:58:19;;;;;;;7.20;6.50;;;7.30;97.70;;;;;;5053171;28;20207;-86
2021/11/06 01:00:44;;;;;;;6.87;6.27;;;7.40;98.00;;;;;;5044385;28;20318;-86
2021/11/06 01:03:10;;;;;;;7.27;6.57;;;7.50;97.40;;;;;;5056734;28;20231;-86
2021/11/06 01:05:36;;;;;;;6.60;6.03;;;7.50;97.40;;;;;;5021020;28;20220;-86
2021/11/06 01:08:02;;;;;;;7.17;6.47;;;7.50;97.50;;;;;;5050756;28;20565;-87
2021/11/06 01:10:29;;;;;;;6.87;6.27;;;7.50;97.30;;;;;;5057122;28;20730;-86
2021/11/06 01:12:55;;;;;;;7.53;6.87;;;7.40;96.90;;;;;;5046109;28;20189;-85
2021/11/06 01:15:21;;;;;;;7.97;6.97;;;7.30;98.30;;;;;;5048346;28;20233;-86
2021/11/06 01:17:47;;;;;;;7.00;6.40;;;7.20;98.80;;;;;;5056016;28;21265;-86
2021/11/06 01:20:13;;;;;;;6.70;6.10;;;7.30;98.30;;;;;;5054993;28;20223;-86
2021/11/06 01:22:40;;;;;;;6.97;6.27;;;7.50;97.30;;;;;;5036316;28;20253;-86
2021/11/06 01:25:07;;;;;;;7.53;6.83;;;7.50;97.20;;;;;;5053640;28;20252;-86
2021/11/06 01:27:34;;;;;;;7.07;6.37;;;7.50;97.40;;;;;;5056389;28;20205;-86
2021/11/06 01:30:00;;;;;;;7.27;6.57;;;7.50;97.40;;;;;;5034919;28;20275;-86
2021/11/06 01:32:25;;;;;;;7.03;6.43;;;7.60;96.90;;;;;;5029017;28;20217;-86
2021/11/06 01:34:51;;;;;;;7.47;6.77;;;7.60;96.80;;;;;;5072224;28;20207;-86
2021/11/06 01:37:17;;;;;;;7.53;6.93;;;7.50;96.80;;;;;;5026511;28;20220;-85
2021/11/06 01:39:43;;;;;;;7.73;7.03;;;7.50;97.10;;;;;;5043035;28;20272;-86
2021/11/06 01:42:09;;;;;;;6.87;6.27;;;7.50;97.30;;;;;;5054234;28;20501;-86
2021/11/06 01:44:34;;;;;;;10.43;9.43;;;7.50;96.90;;;;;;5037379;28;20188;-86
2021/11/06 01:47:00;;;;;;;7.43;6.83;;;7.60;96.70;;;;;;5054297;28;20211;-86
2021/11/06 01:49:26;;;;;;;6.77;6.20;;;7.50;97.00;;;;;;5035313;28;20188;-86
2021/11/06 01:51:52;;;;;;;6.27;5.73;;;7.60;97.20;;;;;;5070686;28;20184;-86
2021/11/06 01:54:23;;;;;;;6.73;6.13;;;7.70;97.10;;;;;;5036452;28;20200;-86
2021/11/06 01:56:54;;;;;;;7.37;6.77;;;7.80;96.50;;;;;;5018746;28;20223;-86
2021/11/06 01:59:20;;;;;;;6.73;6.10;;;7.70;95.70;;;;;;5053465;28;20176;-86
2021/11/06 02:01:47;;;;;;;6.77;6.07;;;7.70;95.50;;;;;;5052214;28;20207;-86
2021/11/06 02:04:13;;;;;;;7.23;6.53;;;7.60;96.00;;;;;;5051350;28;20188;-86
2021/11/06 02:06:38;;;;;;;7.23;6.27;;;7.50;96.00;;;;;;5052350;28;20242;-86
2021/11/06 02:09:04;;;;;;;6.63;6.03;;;7.40;96.00;;;;;;5051816;28;20284;-86
2021/11/06 02:11:32;;;;;;;7.17;6.57;;;7.40;96.60;;;;;;5052011;28;20189;-86
2021/11/06 02:13:58;;;;;;;9.27;6.60;;;7.40;96.10;;;;;;5008334;28;20279;-86
2021/11/06 02:16:24;;;;;;;7.07;6.33;;;7.30;97.10;;;;;;5039650;28;20322;-86
2021/11/06 02:18:49;;;;;;;6.70;5.70;;;7.10;97.70;;;;;;5057349;28;20202;-86
2021/11/06 02:21:15;;;;;;;6.73;6.13;;;7.30;97.60;;;;;;5027384;28;20192;-87
2021/11/06 02:23:44;;;;;;;5.93;5.37;;;7.30;96.30;;;;;;5053369;28;20533;-86
2021/11/06 02:26:13;;;;;;;6.60;5.93;;;7.30;97.20;;;;;;5052695;28;20719;-86
2021/11/06 02:28:40;;;;;;;7.53;6.83;;;7.40;95.80;;;;;;5052650;28;20184;-86
2021/11/06 02:31:06;;;;;;;6.83;5.70;;;7.20;95.40;;;;;;5038666;28;20212;-86
2021/11/06 02:33:32;;;;;;;7.67;6.13;;;6.90;96.60;;;;;;5067214;28;20695;-86
2021/11/06 02:36:01;;;;;;;5.63;5.10;;;6.70;98.20;;;;;;5043976;28;20310;-86
2021/11/06 02:38:27;;;;;;;5.93;5.40;;;6.70;98.40;;;;;;5036833;28;20200;-86
2021/11/06 02:40:56;;;;;;;5.87;5.10;;;6.80;98.60;;;;;;5044532;28;20248;-86
2021/11/06 02:43:22;;;;;;;5.10;4.70;;;6.90;97.90;;;;;;5034423;28;20207;-86
2021/11/06 02:45:48;;;;;;;5.40;4.90;;;7.00;97.30;;;;;;5055267;28;20227;-86
2021/11/06 02:48:14;;;;;;;7.20;5.97;;;7.10;96.60;;;;;;5054743;28;20180;-86
2021/11/06 02:50:39;;;;;;;7.37;5.50;;;7.10;95.60;;;;;;5036143;28;20223;-86
2021/11/06 02:53:06;;;;;;;5.87;5.37;;;7.00;95.10;;;;;;5032330;28;20196;-86
2021/11/06 02:55:32;;;;;;;5.93;5.43;;;7.10;95.10;;;;;;5071408;28;20255;-86
2021/11/06 02:57:58;;;;;;;5.10;4.70;;;7.00;94.60;;;;;;5030308;28;20193;-86
2021/11/06 03:00:26;;;;;;;5.07;4.57;;;7.00;94.40;;;;;;5044043;28;20198;-83
2021/11/06 03:02:52;;;;;;;5.37;4.87;;;6.90;94.30;;;;;;5021784;28;20196;-84
2021/11/06 03:05:18;;;;;;;5.27;4.77;;;6.90;95.10;;;;;;5054725;28;20200;-85
2021/11/06 03:07:44;;;;;;;5.43;4.90;;;6.80;95.50;;;;;;5049499;28;20219;-85
2021/11/06 03:10:11;;;;;;;5.00;4.60;;;6.80;95.50;;;;;;5052881;28;20268;-85
2021/11/06 03:12:37;;;;;;;5.20;4.70;;;6.80;96.00;;;;;;5034843;28;20207;-85
2021/11/06 03:15:05;;;;;;;4.40;4.00;;;6.90;95.80;;;;;;5036965;28;20221;-85
2021/11/06 03:17:30;;;;;;;5.23;4.40;;;6.90;95.40;;;;;;5045041;28;20265;-85
2021/11/06 03:19:56;;;;;;;4.73;4.13;;;7.00;95.10;;;;;;5050719;28;20278;-85
2021/11/06 03:22:22;;;;;;;5.40;4.37;;;7.10;95.10;;;;;;5035118;28;20183;-85
2021/11/06 03:24:48;;;;;;;4.70;4.20;;;7.10;94.30;;;;;;5041980;28;20199;-85
2021/11/06 03:27:14;;;;;;;4.93;3.93;;;6.90;93.60;;;;;;5049148;28;20212;-85
2021/11/06 03:29:39;;;;;;;4.23;3.83;;;6.90;94.50;;;;;;5048886;28;20218;-85
2021/11/06 03:32:07;;;;;;;4.83;4.43;;;7.00;94.30;;;;;;5034268;28;20192;-85
2021/11/06 03:34:33;;;;;;;4.50;4.10;;;7.00;93.70;;;;;;5033385;28;20584;-85
2021/11/06 03:36:59;;;;;;;4.37;4.00;;;6.90;93.50;;;;;;5052928;28;20200;-85
2021/11/06 03:39:24;;;;;;;5.17;4.63;;;6.90;93.00;;;;;;5050017;28;20199;-85
2021/11/06 03:41:50;;;;;;;5.00;4.60;;;6.80;92.30;;;;;;5051621;28;20714;-85
2021/11/06 03:44:16;;;;;;;5.53;3.97;;;6.60;92.20;;;;;;5045400;28;20246;-85
2021/11/06 03:46:42;;;;;;;5.37;4.87;;;6.60;92.70;;;;;;5042384;28;20233;-84
2021/11/06 03:49:08;;;;;;;5.33;4.27;;;6.60;93.80;;;;;;5053353;28;20180;-85
2021/11/06 03:51:34;;;;;;;4.43;4.07;;;6.60;93.70;;;;;;5052634;28;20224;-84
2021/11/06 03:54:00;;;;;;;5.50;4.50;;;6.60;93.70;;;;;;5052718;28;20188;-85
2021/11/06 03:56:27;;;;;;;5.17;4.43;;;6.60;93.10;;;;;;5049408;28;20628;-85
2021/11/06 03:58:53;;;;;;;4.17;3.87;;;6.60;92.70;;;;;;5034577;28;20196;-85
2021/11/06 04:01:19;;;;;;;4.17;3.83;;;6.60;92.70;;;;;;5052850;28;20589;-85
2021/11/06 04:03:45;;;;;;;4.33;3.93;;;6.60;92.90;;;;;;5050925;28;20233;-85
2021/11/06 04:06:11;;;;;;;4.40;4.00;;;6.60;91.70;;;;;;5050327;28;20216;-85
2021/11/06 04:08:37;;;;;;;4.47;4.07;;;6.50;91.70;;;;;;5048526;28;20203;-85
2021/11/06 04:11:03;;;;;;;4.43;4.03;;;6.40;92.10;;;;;;5051160;28;20184;-85
2021/11/06 04:13:29;;;;;;;5.63;5.13;;;6.40;91.90;;;;;;5051750;28;20771;-85
2021/11/06 04:15:54;;;;;;;6.27;4.27;;;6.30;92.20;;;;;;5036265;28;20218;-85
2021/11/06 04:18:20;;;;;;;4.80;4.43;;;6.40;91.70;;;;;;5051586;28;20222;-84
2021/11/06 04:20:46;;;;;;;5.13;4.70;;;6.30;90.80;;;;;;5051071;28;20249;-85
2021/11/06 04:23:13;;;;;;;4.43;4.10;;;6.20;91.50;;;;;;5053000;28;20192;-85
2021/11/06 04:25:39;;;;;;;4.63;4.23;;;6.10;91.10;;;;;;5047400;28;20220;-85
2021/11/06 04:28:05;;;;;;;4.57;4.17;;;6.00;92.50;;;;;;5055367;28;20195;-86
2021/11/06 04:30:30;;;;;;;4.70;4.30;;;6.10;92.70;;;;;;5054466;28;20211;-85
2021/11/06 04:32:56;;;;;;;4.60;4.13;;;6.00;91.70;;;;;;5051562;28;20196;-85
2021/11/06 04:35:22;;;;;;;4.30;3.90;;;6.10;92.40;;;;;;5032755;28;20188;-85
2021/11/06 04:37:48;;;;;;;4.37;3.97;;;6.10;92.90;;;;;;5057765;28;20216;-85
2021/11/06 04:40:14;;;;;;;4.40;4.00;;;6.10;92.20;;;;;;5034122;28;20227;-84
2021/11/06 04:42:40;;;;;;;4.80;3.90;;;6.20;92.00;;;;;;5024395;28;20661;-85
2021/11/06 04:45:09;;;;;;;4.73;4.27;;;6.10;90.70;;;;;;5051822;28;20271;-84
2021/11/06 04:47:35;;;;;;;4.87;4.03;;;6.00;91.00;;;;;;5050971;28;20292;-85
2021/11/06 04:50:04;;;;;;;4.77;4.27;;;6.00;91.50;;;;;;5042398;28;20204;-85
2021/11/06 04:52:30;;;;;;;4.47;4.07;;;5.90;90.00;;;;;;5070022;28;20183;-85
2021/11/06 04:54:56;;;;;;;5.00;4.60;;;5.70;90.50;;;;;;5058427;28;20188;-84
2021/11/06 04:57:22;;;;;;;4.97;4.47;;;5.60;91.90;;;;;;5052172;28;20232;-84
2021/11/06 04:59:47;;;;;;;4.63;4.17;;;5.60;92.40;;;;;;5056932;28;20192;-85
2021/11/06 05:02:13;;;;;;;6.27;4.23;;;5.70;92.60;;;;;;5047600;28;20195;-85
2021/11/06 05:04:39;;;;;;;4.53;4.13;;;5.60;90.20;;;;;;5043077;28;20192;-85
2021/11/06 05:07:05;;;;;;;5.03;4.00;;;5.50;92.20;;;;;;5054729;28;20331;-85
2021/11/06 05:09:31;;;;;;;5.93;4.10;;;5.60;92.20;;;;;;5054421;28;20188;-85
2021/11/06 05:11:57;;;;;;;4.80;4.30;;;5.60;91.90;;;;;;5053538;28;20184;-85
2021/11/06 05:14:23;;;;;;;4.33;3.93;;;5.60;92.20;;;;;;5056117;28;20188;-85
2021/11/06 05:16:49;;;;;;;4.77;3.87;;;5.60;92.10;;;;;;5056132;28;20209;-85
2021/11/06 05:19:16;;;;;;;4.47;4.00;;;5.70;91.30;;;;;;5035597;28;20207;-84
2021/11/06 05:21:44;;;;;;;5.13;3.60;;;5.60;89.30;;;;;;5054168;28;20234;-85
2021/11/06 05:24:10;;;;;;;4.50;4.10;;;5.40;89.70;;;;;;5022775;28;20661;-85
2021/11/06 05:26:37;;;;;;;4.27;3.80;;;5.40;91.40;;;;;;5031216;28;20224;-85
2021/11/06 05:29:09;;;;;;;5.13;4.10;;;5.30;92.70;;;;;;5039263;28;20215;-84
2021/11/06 05:31:35;;;;;;;4.07;3.67;;;5.40;92.60;;;;;;5050179;28;20231;-85
2021/11/06 05:34:01;;;;;;;3.97;3.67;;;5.50;92.30;;;;;;5037452;28;20291;-85
2021/11/06 05:36:27;;;;;;;4.47;4.07;;;5.50;91.40;;;;;;5050975;28;20564;-85
2021/11/06 05:38:54;;;;;;;5.63;4.37;;;5.40;90.70;;;;;;5054393;28;20207;-85
2021/11/06 05:41:19;;;;;;;5.03;3.70;;;5.40;90.70;;;;;;5018963;28;20185;-85
2021/11/06 05:43:45;;;;;;;4.30;3.90;;;5.40;90.90;;;;;;5036109;28;20207;-85
2021/11/06 05:46:11;;;;;;;4.27;3.97;;;5.40;90.90;;;;;;5052224;28;20250;-85
2021/11/06 05:48:38;;;;;;;5.60;4.77;;;5.40;90.80;;;;;;5072150;28;20329;-85
2021/11/06 05:51:04;;;;;;;11.10;9.10;;;5.50;90.90;;;;;;5054080;28;20191;-85
2021/11/06 05:53:30;;;;;;;6.03;5.53;;;5.60;90.40;;;;;;5051325;28;20218;-85
2021/11/06 05:55:56;;;;;;;7.30;6.10;;;5.50;90.40;;;;;;5037531;28;20618;-85
2021/11/06 05:58:22;;;;;;;6.20;5.20;;;5.60;90.40;;;;;;5054013;28;20219;-85
2021/11/06 06:00:48;;;;;;;6.27;4.90;;;5.60;90.30;;;;;;5047117;28;20224;-85
2021/11/06 06:03:14;;;;;;;5.77;4.63;;;5.50;90.30;;;;;;5036291;28;20680;-85
2021/11/06 06:05:39;;;;;;;4.60;4.20;;;5.50;90.00;;;;;;5050372;28;20230;-85
2021/11/06 06:08:05;;;;;;;4.73;4.33;;;5.50;90.10;;;;;;5058991;28;20196;-85
2021/11/06 06:10:31;;;;;;;5.03;4.50;;;5.50;90.00;;;;;;5053768;28;20188;-85
2021/11/06 06:12:57;;;;;;;4.73;4.33;;;5.50;90.00;;;;;;5053201;28;20566;-85
2021/11/06 06:15:23;;;;;;;4.80;4.30;;;5.50;89.70;;;;;;5035825;28;20206;-85
2021/11/06 06:17:51;;;;;;;4.20;3.80;;;5.50;89.30;;;;;;5035274;28;20228;-85
2021/11/06 06:20:17;;;;;;;4.77;4.37;;;5.40;89.80;;;;;;5056339;28;20208;-85
2021/11/06 06:22:43;;;;;;;4.60;4.20;;;5.40;89.70;;;;;;5050811;28;20524;-85
2021/11/06 06:25:10;;;;;;;4.73;4.17;;;5.40;89.50;;;;;;5053081;28;20203;-85
2021/11/06 06:27:37;;;;;;;4.60;4.30;;;5.40;89.50;;;;;;5017331;28;20273;-85
2021/11/06 06:30:05;;;;;;;4.77;4.37;;;5.40;89.70;;;;;;5065063;28;20627;-85
2021/11/06 06:32:31;;;;;;;4.70;4.30;;;5.40;90.10;;;;;;5020206;28;20192;-85
2021/11/06 06:34:57;;;;;;;4.60;4.20;;;5.40;90.70;;;;;;5041643;28;20184;-85
2021/11/06 06:37:24;;;;;;;4.50;4.10;;;5.30;90.10;;;;;;5040722;28;20920;-85
2021/11/06 06:39:50;;;;;;;5.07;4.03;;;5.40;89.40;;;;;;5049718;28;20253;-85
2021/11/06 06:42:17;;;;;;;5.27;4.60;;;5.30;89.20;;;;;;5052422;28;20553;-85
2021/11/06 06:44:43;;;;;;;4.60;4.20;;;5.20;90.00;;;;;;5033969;28;20200;-85
2021/11/06 06:47:10;;;;;;;4.47;4.07;;;5.30;90.30;;;;;;5054403;28;20350;-85
2021/11/06 06:49:36;;;;;;;4.27;3.87;;;5.30;89.40;;;;;;5052879;28;20279;-85
2021/11/06 06:52:02;;;;;;;3.87;3.57;;;5.20;89.60;;;;;;5052400;28;20673;-85
2021/11/06 06:54:27;;;;;;;4.37;3.97;;;5.30;89.60;;;;;;5024498;28;20208;-85
2021/11/06 06:56:53;;;;;;;4.20;3.90;;;5.30;90.10;;;;;;5048170;28;20220;-85
2021/11/06 06:59:19;;;;;;;4.40;4.00;;;5.30;90.10;;;;;;5033104;28;20705;-85
2021/11/06 07:01:46;;;;;;;5.07;4.10;;;5.30;90.10;;;;;;5059894;28;20215;-86
2021/11/06 07:04:12;;;;;;;4.60;3.70;;;5.20;90.20;;;;;;5030588;28;20242;-86
2021/11/06 07:06:38;;;;;;;4.90;4.40;;;5.10;90.00;;;;;;5047365;28;20224;-85
2021/11/06 07:09:03;;;;;;;5.43;4.93;;;5.20;90.60;;;;;;5056878;28;20302;-87
2021/11/06 07:11:29;;;;;;;7.67;5.17;;;5.30;91.70;;;;;;5054160;28;20228;-86
2021/11/06 07:13:55;;;;;;;5.47;4.97;;;5.30;90.50;;;;;;5045545;28;20196;-85
2021/11/06 07:16:21;;;;;;;12.70;6.10;;;5.30;91.50;;;;;;5030690;28;20296;-87
2021/11/06 07:18:46;;;;;;;15.93;6.33;;;5.30;92.20;;;;;;5049891;28;20218;-87
2021/11/06 07:21:12;;;;;;;6.27;5.57;;;5.30;93.50;;;;;;5029822;28;20196;-89
2021/11/06 07:23:38;;;;;;;26.27;6.70;;;5.40;93.90;;;;;;5038496;28;20188;-87
2021/11/06 07:26:03;;;;;;;5.50;5.00;;;5.30;92.60;;;;;;5036915;28;20282;-88
2021/11/06 07:28:30;;;;;;;5.30;4.83;;;5.20;94.60;;;;;;5055252;28;20188;-87
2021/11/06 07:30:57;;;;;;;5.90;5.33;;;5.30;94.70;;;;;;5058624;28;20180;-88
2021/11/06 07:33:22;;;;;;;10.53;5.23;;;5.30;94.20;;;;;;5038286;28;20242;-88
2021/11/06 07:35:49;;;;;;;10.87;5.57;;;5.40;93.70;;;;;;5047581;28;20224;-87
2021/11/06 07:38:14;;;;;;;15.20;5.80;;;5.10;93.20;;;;;;5046376;28;20606;-88
2021/11/06 07:40:41;;;;;;;30.47;6.53;;;5.00;94.70;;;;;;5052084;28;20214;-89
2021/11/06 07:43:06;;;;;;;28.80;6.03;;;4.90;95.20;;;;;;5027233;28;20696;-88
2021/11/06 07:45:35;;;;;;;8.63;5.50;;;5.00;95.50;;;;;;5012935;28;20220;-87
2021/11/06 07:48:01;;;;;;;10.67;5.87;;;4.90;96.30;;;;;;5009963;28;20342;-87
2021/11/06 07:50:27;;;;;;;50.30;8.27;;;4.90;97.80;;;;;;5045011;28;20200;-86
2021/11/06 07:52:53;;;;;;;79.83;9.53;;;4.80;97.60;;;;;;5032810;28;20192;-88
2021/11/06 07:55:19;;;;;;;39.33;8.43;;;4.80;98.80;;;;;;5029078;28;20580;-86
2021/11/06 07:57:46;;;;;;;7.77;6.97;;;4.80;99.40;;;;;;5031091;28;20258;-88
2021/11/06 08:00:18;;;;;;;6.87;6.20;;;4.90;99.90;;;;;;5051863;28;20218;-87
2021/11/06 08:02:45;;;;;;;6.33;5.73;;;5.10;99.90;;;;;;5046654;28;20536;-87
2021/11/06 08:05:13;;;;;;;9.67;7.67;;;5.30;99.80;;;;;;5017975;28;20196;-87
2021/11/06 08:07:40;;;;;;;52.07;9.50;;;5.30;98.60;;;;;;5035561;28;20222;-88
2021/11/06 08:10:07;;;;;;;44.43;9.43;;;5.40;98.10;;;;;;5034266;28;20200;-88
2021/11/06 08:12:37;;;;;;;22.00;7.77;;;5.00;97.50;;;;;;5048353;28;20656;-88
2021/11/06 08:15:03;;;;;;;22.13;7.87;;;4.90;99.90;;;;;;5038727;28;20180;-88
2021/11/06 08:17:29;;;;;;;7.40;6.70;;;4.80;99.90;;;;;;5058732;28;20944;-88
2021/11/06 08:19:58;;;;;;;28.33;9.30;;;4.90;99.90;;;;;;5054111;28;20219;-88
2021/11/06 08:22:24;;;;;;;13.00;8.40;;;5.20;99.80;;;;;;5038002;28;20276;-88
2021/11/06 08:24:50;;;;;;;11.13;7.67;;;5.20;98.50;;;;;;5036430;28;20228;-89
2021/11/06 08:27:15;;;;;;;30.73;9.13;;;5.00;98.90;;;;;;5048941;28;20719;-90
2021/11/06 08:29:41;;;;;;;8.47;7.67;;;5.00;98.80;;;;;;5033493;28;20189;-88
2021/11/06 08:32:08;;;;;;;8.97;8.07;;;5.20;99.90;;;;;;5054484;28;20201;-87
2021/11/06 08:34:33;;;;;;;16.23;8.90;;;5.50;99.30;;;;;;5030774;28;20196;-89
2021/11/06 08:36:59;;;;;;;10.60;8.40;;;5.60;98.30;;;;;;5046415;28;20715;-89
2021/11/06 08:39:27;;;;;;;15.73;9.27;;;5.70;98.40;;;;;;5032029;28;20196;-88
2021/11/06 08:41:55;;;;;;;18.63;10.50;;;5.70;96.90;;;;;;5049097;28;20184;-88
2021/11/06 08:44:22;;;;;;;20.40;10.30;;;5.30;97.00;;;;;;5048958;28;20197;-87
2021/11/06 08:46:50;;;;;;;11.10;9.90;;;5.10;99.40;;;;;;5047938;28;20236;-88
2021/11/06 08:49:17;;;;;;;8.83;7.93;;;5.20;99.90;;;;;;5040501;28;20614;-88
2021/11/06 08:51:45;;;;;;;14.47;10.40;;;5.50;99.80;;;;;;5051151;28;20335;-87
2021/11/06 08:54:10;;;;;;;11.90;9.60;;;5.80;97.90;;;;;;5053217;28;20185;-86
2021/11/06 08:56:36;;;;;;;15.93;10.30;;;5.60;97.30;;;;;;5051502;28;20586;-87
2021/11/06 08:59:03;;;;;;;11.83;10.00;;;5.70;98.50;;;;;;5057197;28;20915;-88
2021/11/06 09:01:29;;;;;;;26.37;12.77;;;5.80;98.00;;;;;;5053862;28;20205;-87
2021/11/06 09:03:55;;;;;;;13.93;12.37;;;5.80;98.10;;;;;;5049029;28;20246;-88
2021/11/06 09:06:21;;;;;;;15.53;11.80;;;5.50;99.50;;;;;;5056758;28;20765;-87
2021/11/06 09:08:49;;;;;;;10.77;9.70;;;5.70;99.90;;;;;;5049632;28;20192;-87
2021/11/06 09:11:16;;;;;;;10.23;9.30;;;6.00;99.10;;;;;;5046590;28;20188;-88
2021/11/06 09:13:49;;;;;;;10.00;9.00;;;6.20;97.00;;;;;;5041759;28;20251;-87
2021/11/06 09:16:16;;;;;;;11.93;9.43;;;6.40;96.00;;;;;;5048268;28;20997;-87
2021/11/06 09:18:41;;;;;;;15.33;9.63;;;6.50;97.20;;;;;;5038724;28;20260;-87
2021/11/06 09:21:09;;;;;;;11.03;9.97;;;6.20;96.30;;;;;;5047560;28;20224;-89
2021/11/06 09:23:36;;;;;;;10.93;9.43;;;6.00;98.20;;;;;;5047426;28;20196;-87
2021/11/06 09:26:02;;;;;;;11.00;9.73;;;6.10;98.80;;;;;;5030788;28;20227;-88
2021/11/06 09:28:28;;;;;;;11.00;9.73;;;6.00;98.40;;;;;;5045281;28;20188;-88
2021/11/06 09:30:54;;;;;;;12.03;10.03;;;5.80;99.10;;;;;;5030145;28;20200;-87
2021/11/06 09:33:21;;;;;;;12.80;10.20;;;5.80;99.60;;;;;;5069519;28;20187;-88
2021/11/06 09:35:47;;;;;;;13.40;10.37;;;5.70;99.90;;;;;;5047770;28;20786;-88
2021/11/06 09:38:13;;;;;;;15.20;10.50;;;5.70;99.90;;;;;;5051229;28;20283;-87
2021/11/06 09:40:39;;;;;;;11.13;10.03;;;5.90;99.90;;;;;;5042243;28;20415;-88
2021/11/06 09:43:06;;;;;;;12.67;11.37;;;6.10;98.20;;;;;;5036547;28;20242;-87
2021/11/06 09:45:31;;;;;;;13.13;11.73;;;6.30;97.30;;;;;;5032801;28;20308;-87
2021/11/06 09:47:57;;;;;;;11.77;10.40;;;6.40;96.00;;;;;;5043138;28;20215;-87
2021/11/06 09:50:24;;;;;;;11.90;10.70;;;6.50;97.50;;;;;;5061268;28;20168;-87
2021/11/06 09:52:52;;;;;;;11.97;10.87;;;6.40;96.00;;;;;;5041965;28;20252;-88
2021/11/06 09:55:21;;;;;;;10.97;9.83;;;6.40;97.80;;;;;;5056276;28;20193;-88
2021/11/06 09:57:50;;;;;;;13.27;11.87;;;6.60;97.60;;;;;;5028457;28;20283;-88
2021/11/06 10:00:18;;;;;;;12.23;10.93;;;6.40;96.30;;;;;;5049669;28;20239;-87
2021/11/06 10:02:45;;;;;;;15.50;13.10;;;6.10;97.50;;;;;;5045968;28;20189;-88
2021/11/06 10:05:12;;;;;;;13.67;12.27;;;6.00;98.10;;;;;;5068339;28;20283;-87
2021/11/06 10:07:39;;;;;;;12.37;11.27;;;6.40;97.70;;;;;;5049810;28;20291;-87
2021/11/06 10:10:14;;;;;;;13.47;11.60;;;6.80;97.40;;;;;;5051684;28;20294;-87
2021/11/06 10:12:57;;;;;;;12.60;11.40;;;7.20;94.50;;;;;;5065934;28;20835;-86
2021/11/06 10:15:25;;;;;;;12.23;10.60;;;7.60;92.90;;;;;;5036107;28;20221;-87
2021/11/06 10:17:51;;;;;;;11.43;10.33;;;8.10;90.40;;;;;;5055641;28;20731;-87
2021/11/06 10:20:32;;;;;;;12.93;9.60;;;8.50;88.80;;;;;;5031838;28;20192;-87
2021/11/06 10:23:01;;;;;;;7.80;7.10;;;8.80;88.50;;;;;;5035838;28;20191;-86
2021/11/06 10:25:27;;;;;;;8.87;8.07;;;8.50;85.10;;;;;;5034582;28;20185;-87
2021/11/06 10:27:55;;;;;;;10.33;9.43;;;8.50;87.20;;;;;;5055436;28;20185;-88
2021/11/06 10:30:30;;;;;;;10.00;9.10;;;8.30;88.90;;;;;;5056139;28;20184;-87
2021/11/06 10:32:59;;;;;;;9.17;8.33;;;8.60;87.30;;;;;;5056250;28;20184;-87
2021/11/06 10:35:27;;;;;;;9.73;8.83;;;8.80;88.30;;;;;;5063530;28;20194;-87
2021/11/06 10:38:10;;;;;;;9.47;8.67;;;9.20;87.40;;;;;;5038314;28;20240;-87
2021/11/06 10:40:46;;;;;;;9.50;8.50;;;9.60;84.90;;;;;;5051246;28;20184;-88
2021/11/06 10:43:14;;;;;;;12.03;9.73;;;9.70;85.40;;;;;;5027095;28;20189;-87
2021/11/06 10:45:55;;;;;;;9.57;8.67;;;9.90;83.20;;;;;;5052213;28;20205;-87
2021/11/06 10:48:23;;;;;;;9.90;8.53;;;9.90;83.40;;;;;;5052713;28;20246;-87
2021/11/06 10:50:51;;;;;;;11.73;10.53;;;9.70;85.40;;;;;;5034617;28;20187;-88
2021/11/06 10:53:41;;;;;;;13.33;12.03;;;10.10;85.10;;;;;;5052497;28;20218;-88
2021/11/06 10:56:13;;;;;;;10.83;9.73;;;10.80;82.40;;;;;;5046320;28;20724;-87
2021/11/06 10:58:40;;;;;;;13.00;11.90;;;11.00;81.40;;;;;;5040937;28;20198;-87
2021/11/06 11:01:08;;;;;;;11.47;10.57;;;10.90;82.20;;;;;;5070392;28;20235;-88
2021/11/06 11:03:36;;;;;;;11.73;10.73;;;10.90;81.40;;;;;;5059978;28;20795;-87
2021/11/06 11:06:28;;;;;;;12.50;11.40;;;10.90;80.70;;;;;;5057637;28;20737;-87
2021/11/06 11:08:56;;;;;;;13.80;12.50;;;10.80;81.20;;;;;;5048424;28;20193;-87
2021/11/06 11:11:26;;;;;;;12.03;10.93;;;11.00;81.00;;;;;;5054337;28;20539;-88
2021/11/06 11:14:01;;;;;;;10.93;9.93;;;11.20;79.60;;;;;;5047124;28;20195;-87
2021/11/06 11:16:29;;;;;;;13.63;12.43;;;11.40;78.90;;;;;;5023601;28;20229;-86
2021/11/06 11:18:56;;;;;;;11.07;10.13;;;11.60;79.10;;;;;;5006883;28;20686;-87
2021/11/06 11:21:27;;;;;;;11.80;10.77;;;11.70;78.30;;;;;;5027246;28;20191;-87
2021/11/06 11:23:59;;;;;;;11.43;10.43;;;11.90;77.80;;;;;;5046643;28;20193;-86
2021/11/06 11:26:31;;;;;;;11.77;10.77;;;11.90;76.90;;;;;;5032454;28;20265;-86
2021/11/06 11:28:58;;;;;;;11.70;10.60;;;11.50;78.80;;;;;;5050908;28;20213;-87
2021/11/06 11:31:25;;;;;;;11.07;10.10;;;11.40;79.50;;;;;;5053291;28;20856;-87
2021/11/06 11:33:52;;;;;;;11.37;10.37;;;11.60;79.70;;;;;;5038121;28;20204;-87
2021/11/06 11:36:20;;;;;;;12.03;11.03;;;12.00;78.10;;;;;;5051092;28;20575;-87
2021/11/06 11:38:47;;;;;;;11.60;10.67;;;11.70;78.40;;;;;;5049916;28;20195;-87
2021/11/06 11:41:46;;;;;;;12.07;10.87;;;11.60;78.40;;;;;;5049424;28;20197;-87
2021/11/06 11:44:30;;;;;;;11.67;10.57;;;11.30;78.80;;;;;;5048083;28;20198;-87
2021/11/06 11:47:05;;;;;;;13.07;11.33;;;11.80;78.40;;;;;;5045382;28;20470;-87
2021/11/06 11:49:33;;;;;;;12.00;10.93;;;11.90;77.00;;;;;;5031463;28;20179;-87
2021/11/06 11:52:22;;;;;;;11.40;10.40;;;12.00;76.20;;;;;;5028063;28;20606;-87
2021/11/06 11:55:18;;;;;;;11.93;10.93;;;12.20;75.80;;;;;;5051297;28;20273;-87
2021/11/06 11:58:03;;;;;;;12.60;11.50;;;12.00;77.70;;;;;;5050793;28;20285;-87
2021/11/06 12:00:29;;;;;;;11.90;10.90;;;12.10;76.70;;;;;;5055215;28;20540;-86
2021/11/06 12:03:00;;;;;;;13.27;11.93;;;12.40;74.90;;;;;;5032234;28;20198;-88
2021/11/06 12:05:29;;;;;;;12.83;11.73;;;11.60;77.70;;;;;;5049825;28;20872;-85
2021/11/06 12:08:10;;;;;;;12.90;11.67;;;11.30;80.90;;;;;;5037601;28;20717;-87
2021/11/06 12:10:44;;;;;;;13.50;12.23;;;11.80;79.70;;;;;;5057858;28;20184;-88
2021/11/06 12:13:28;;;;;;;13.47;12.27;;;12.20;78.70;;;;;;5060000;28;20188;-86
2021/11/06 12:16:12;;;;;;;13.93;12.53;;;13.00;75.20;;;;;;5027262;28;20213;-87
2021/11/06 12:18:46;;;;;;;14.57;13.17;;;13.20;73.70;;;;;;5037736;28;20196;-88
2021/11/06 12:21:21;;;;;;;15.23;13.73;;;13.40;73.40;;;;;;5070173;28;20270;-87
2021/11/06 12:23:50;;;;;;;16.27;14.77;;;13.50;72.90;;;;;;5058186;28;20219;-86
2021/11/06 12:26:32;;;;;;;15.93;14.40;;;13.30;73.50;;;;;;5061331;28;20713;-87
2021/11/06 12:29:10;;;;;;;15.17;13.67;;;13.20;73.20;;;;;;5040321;28;20189;-87
2021/11/06 12:31:44;;;;;;;14.77;13.33;;;13.30;73.50;;;;;;5046711;28;20275;-87
2021/11/06 12:34:43;;;;;;;16.80;15.23;;;13.50;73.40;;;;;;5037733;28;20192;-86
2021/11/06 12:37:13;;;;;;;18.13;16.33;;;13.60;72.70;;;;;;5053431;28;20209;-86
2021/11/06 12:39:48;;;;;;;18.20;16.30;;;13.00;74.10;;;;;;5036281;28;20199;-86
2021/11/06 12:42:17;;;;;;;17.77;16.03;;;12.60;75.20;;;;;;5047845;28;20204;-86
2021/11/06 12:44:59;;;;;;;17.27;15.63;;;12.60;75.30;;;;;;5034619;28;20199;-86
2021/11/06 12:47:27;;;;;;;16.47;14.97;;;12.30;76.40;;;;;;5046574;28;20239;-87
2021/11/06 12:49:53;;;;;;;17.23;15.50;;;11.90;77.40;;;;;;5056972;28;20213;-86
2021/11/06 12:52:25;;;;;;;17.17;15.67;;;11.70;78.90;;;;;;5047968;28;20197;-87